sensor_id;sensor_type;location;lat;lon;timestamp;temperature;humidity
21261;DHT22;10788;47.930;9.766;2023-05-10T00:01:11;12.40;99.90
21261;DHT22;10788;47.930;9.766;2023-05-10T00:03:37;12.40;99.90
21261;DHT22;10788;47.930;9.766;2023-05-10T00:06:02;12.40;99.90
21261;DHT22;10788;47.930;9.766;2023-05-10T00:08:28;12.40;99.90
21261;DHT22;10788;47.930;9.766;2023-05-10T00:10:54;12.50;99.90
21261;DHT22;10788;47.930;9.766;2023-05-10T00:13:19;12.50;99.90
21261;DHT22;10788;47.930;9.766;2023-05-10T00:15:45;12.40;99.90
21261;DHT22;10788;47.930;9.766;2023-05-10T00:18:10;12.40;99.90
21261;DHT22;10788;47.930;9.766;2023-05-10T00:20:36;12.40;99.90
21261;DHT22;10788;47.930;9.766;2023-05-10T00:23:02;12.40;99.90
21261;DHT22;10788;47.930;9.766;2023-05-10T00:25:27;12.40;99.90
21261;DHT22;10788;47.930;9.766;2023-05-10T00:27:53;12.30;99.90
21261;DHT22;10788;47.930;9.766;2023-05-10T00:30:20;12.30;99.90
21261;DHT22;10788;47.930;9.766;2023-05-10T00:32:46;12.30;99.90
21261;DHT22;10788;47.930;9.766;2023-05-10T00:35:13;12.20;99.90
21261;DHT22;10788;47.930;9.766;2023-05-10T00:37:39;12.20;99.90
21261;DHT22;10788;47.930;9.766;2023-05-10T00:40:05;12.20;99.90
21261;DHT22;10788;47.930;9.766;2023-05-10T00:42:31;12.20;99.90
21261;DHT22;10788;47.930;9.766;2023-05-10T00:44:57;12.10;99.90
21261;DHT22;10788;47.930;9.766;2023-05-10T00:47:23;12.20;99.90
21261;DHT22;10788;47.930;9.766;2023-05-10T00:49:49;12.20;99.90
21261;DHT22;10788;47.930;9.766;2023-05-10T00:52:15;12.20;99.90
21261;DHT22;10788;47.930;9.766;2023-05-10T00:54:41;12.30;99.90
21261;DHT22;10788;47.930;9.766;2023-05-10T00:57:07;12.30;99.90
21261;DHT22;10788;47.930;9.766;2023-05-10T00:59:33;12.30;99.90
21261;DHT22;10788;47.930;9.766;2023-05-10T01:01:58;12.40;99.90
21261;DHT22;10788;47.930;9.766;2023-05-10T01:04:24;12.30;99.90
21261;DHT22;10788;47.930;9.766;2023-05-10T01:06:53;12.20;99.90
21261;DHT22;10788;47.930;9.766;2023-05-10T01:09:20;12.20;99.90
21261;DHT22;10788;47.930;9.766;2023-05-10T01:11:47;12.20;99.90
21261;DHT22;10788;47.930;9.766;2023-05-10T01:14:13;12.20;99.90
21261;DHT22;10788;47.930;9.766;2023-05-10T01:16:41;12.20;99.90
21261;DHT22;10788;47.930;9.766;2023-05-10T01:19:16;12.20;99.90
21261;DHT22;10788;47.930;9.766;2023-05-10T01:24:47;12.10;99.90
21261;DHT22;10788;47.930;9.766;2023-05-10T01:30:50;12.10;99.90
21261;DHT22;10788;47.930;9.766;2023-05-10T01:36:48;12.00;99.90
21261;DHT22;10788;47.930;9.766;2023-05-10T01:41:55;12.00;99.90
21261;DHT22;10788;47.930;9.766;2023-05-10T01:44:35;11.90;99.90
21261;DHT22;10788;47.930;9.766;2023-05-10T01:47:54;11.90;99.90
21261;DHT22;10788;47.930;9.766;2023-05-10T01:49:55;12.00;99.90
21261;DHT22;10788;47.930;9.766;2023-05-10T01:52:26;11.90;99.90
21261;DHT22;10788;47.930;9.766;2023-05-10T01:55:01;11.90;99.90
21261;DHT22;10788;47.930;9.766;2023-05-10T01:57:35;11.90;99.90
21261;DHT22;10788;47.930;9.766;2023-05-10T02:00:03;12.00;99.90
21261;DHT22;10788;47.930;9.766;2023-05-10T02:02:33;11.90;99.90
21261;DHT22;10788;47.930;9.766;2023-05-10T02:05:03;11.90;99.90
21261;DHT22;10788;47.930;9.766;2023-05-10T02:07:32;11.90;99.90
21261;DHT22;10788;47.930;9.766;2023-05-10T02:09:59;11.80;99.90
21261;DHT22;10788;47.930;9.766;2023-05-10T02:12:27;11.80;99.90
21261;DHT22;10788;47.930;9.766;2023-05-10T02:14:55;11.80;99.90
21261;DHT22;10788;47.930;9.766;2023-05-10T02:17:21;11.90;99.90
21261;DHT22;10788;47.930;9.766;2023-05-10T02:19:49;11.90;99.90
21261;DHT22;10788;47.930;9.766;2023-05-10T02:22:16;11.80;99.90
21261;DHT22;10788;47.930;9.766;2023-05-10T02:24:43;11.80;99.90
21261;DHT22;10788;47.930;9.766;2023-05-10T02:27:10;11.70;99.90
21261;DHT22;10788;47.930;9.766;2023-05-10T02:29:37;11.80;99.90
21261;DHT22;10788;47.930;9.766;2023-05-10T02:32:03;11.80;99.90
21261;DHT22;10788;47.930;9.766;2023-05-10T02:34:30;11.80;99.90
21261;DHT22;10788;47.930;9.766;2023-05-10T02:36:56;11.80;99.90
21261;DHT22;10788;47.930;9.766;2023-05-10T02:39:23;11.80;99.90
21261;DHT22;10788;47.930;9.766;2023-05-10T02:41:50;11.80;99.90
21261;DHT22;10788;47.930;9.766;2023-05-10T02:44:18;11.80;99.90
21261;DHT22;10788;47.930;9.766;2023-05-10T02:46:45;11.70;99.90
21261;DHT22;10788;47.930;9.766;2023-05-10T02:49:11;11.70;99.90
21261;DHT22;10788;47.930;9.766;2023-05-10T02:51:42;11.70;99.90
21261;DHT22;10788;47.930;9.766;2023-05-10T02:54:20;11.70;99.90
21261;DHT22;10788;47.930;9.766;2023-05-10T02:56:50;11.70;99.90
21261;DHT22;10788;47.930;9.766;2023-05-10T02:59:16;11.80;99.90
21261;DHT22;10788;47.930;9.766;2023-05-10T03:01:42;11.60;99.90
21261;DHT22;10788;47.930;9.766;2023-05-10T03:04:08;11.60;99.90
21261;DHT22;10788;47.930;9.766;2023-05-10T03:06:33;11.60;99.90
21261;DHT22;10788;47.930;9.766;2023-05-10T03:08:59;11.50;99.90
21261;DHT22;10788;47.930;9.766;2023-05-10T03:11:54;11.50;99.90
21261;DHT22;10788;47.930;9.766;2023-05-10T03:19:54;11.60;99.90
21261;DHT22;10788;47.930;9.766;2023-05-10T03:22:34;11.60;99.90
21261;DHT22;10788;47.930;9.766;2023-05-10T03:25:05;11.50;99.90
21261;DHT22;10788;47.930;9.766;2023-05-10T03:27:32;11.50;99.90
21261;DHT22;10788;47.930;9.766;2023-05-10T03:29:59;11.50;99.90
21261;DHT22;10788;47.930;9.766;2023-05-10T03:32:29;11.60;99.90
21261;DHT22;10788;47.930;9.766;2023-05-10T03:34:55;11.60;99.90
21261;DHT22;10788;47.930;9.766;2023-05-10T03:37:21;11.60;99.90
21261;DHT22;10788;47.930;9.766;2023-05-10T03:39:46;11.50;99.90
21261;DHT22;10788;47.930;9.766;2023-05-10T03:42:12;11.50;99.90
21261;DHT22;10788;47.930;9.766;2023-05-10T03:44:41;11.40;99.90
21261;DHT22;10788;47.930;9.766;2023-05-10T03:47:06;11.50;99.90
21261;DHT22;10788;47.930;9.766;2023-05-10T03:49:32;11.50;99.90
21261;DHT22;10788;47.930;9.766;2023-05-10T03:51:57;11.50;99.90
21261;DHT22;10788;47.930;9.766;2023-05-10T03:54:23;11.50;99.90
21261;DHT22;10788;47.930;9.766;2023-05-10T03:56:49;11.30;99.90
21261;DHT22;10788;47.930;9.766;2023-05-10T03:59:14;11.40;99.90
21261;DHT22;10788;47.930;9.766;2023-05-10T04:01:40;11.40;99.90
21261;DHT22;10788;47.930;9.766;2023-05-10T04:04:05;11.40;99.90
21261;DHT22;10788;47.930;9.766;2023-05-10T04:06:31;11.50;99.90
21261;DHT22;10788;47.930;9.766;2023-05-10T04:08:57;11.40;99.90
21261;DHT22;10788;47.930;9.766;2023-05-10T04:11:25;11.40;99.90
21261;DHT22;10788;47.930;9.766;2023-05-10T04:13:51;11.40;99.90
21261;DHT22;10788;47.930;9.766;2023-05-10T04:16:16;11.40;99.90
21261;DHT22;10788;47.930;9.766;2023-05-10T04:18:42;11.40;99.90
21261;DHT22;10788;47.930;9.766;2023-05-10T04:21:14;11.40;99.90
21261;DHT22;10788;47.930;9.766;2023-05-10T04:23:39;11.40;99.90
21261;DHT22;10788;47.930;9.766;2023-05-10T04:26:05;11.50;99.90
21261;DHT22;10788;47.930;9.766;2023-05-10T04:28:31;11.50;99.90
21261;DHT22;10788;47.930;9.766;2023-05-10T04:31:04;11.40;99.90
21261;DHT22;10788;47.930;9.766;2023-05-10T04:33:30;11.40;99.90
21261;DHT22;10788;47.930;9.766;2023-05-10T04:35:56;11.40;99.90
21261;DHT22;10788;47.930;9.766;2023-05-10T04:38:22;11.30;99.90
21261;DHT22;10788;47.930;9.766;2023-05-10T04:40:47;11.50;99.90
21261;DHT22;10788;47.930;9.766;2023-05-10T04:43:13;11.30;99.90
21261;DHT22;10788;47.930;9.766;2023-05-10T04:45:38;11.40;99.90
21261;DHT22;10788;47.930;9.766;2023-05-10T04:48:04;11.40;99.90
21261;DHT22;10788;47.930;9.766;2023-05-10T04:50:30;11.40;99.90
21261;DHT22;10788;47.930;9.766;2023-05-10T04:52:57;11.40;99.90
21261;DHT22;10788;47.930;9.766;2023-05-10T04:55:22;11.50;99.90
21261;DHT22;10788;47.930;9.766;2023-05-10T04:57:48;11.40;99.90
21261;DHT22;10788;47.930;9.766;2023-05-10T05:00:14;11.50;99.90
21261;DHT22;10788;47.930;9.766;2023-05-10T05:02:44;11.50;99.90
21261;DHT22;10788;47.930;9.766;2023-05-10T05:05:11;11.50;99.90
21261;DHT22;10788;47.930;9.766;2023-05-10T05:07:36;11.50;99.90
21261;DHT22;10788;47.930;9.766;2023-05-10T05:10:07;11.50;99.90
21261;DHT22;10788;47.930;9.766;2023-05-10T05:12:34;11.50;99.90
21261;DHT22;10788;47.930;9.766;2023-05-10T05:14:59;11.60;99.90
21261;DHT22;10788;47.930;9.766;2023-05-10T05:17:25;11.50;99.90
21261;DHT22;10788;47.930;9.766;2023-05-10T05:19:51;11.60;99.90
21261;DHT22;10788;47.930;9.766;2023-05-10T05:22:16;11.60;99.90
21261;DHT22;10788;47.930;9.766;2023-05-10T05:24:42;11.60;99.90
21261;DHT22;10788;47.930;9.766;2023-05-10T05:27:07;11.70;99.90
21261;DHT22;10788;47.930;9.766;2023-05-10T05:29:33;11.70;99.90
21261;DHT22;10788;47.930;9.766;2023-05-10T05:31:59;11.60;99.90
21261;DHT22;10788;47.930;9.766;2023-05-10T05:34:25;11.70;99.90
21261;DHT22;10788;47.930;9.766;2023-05-10T05:36:51;11.70;99.90
21261;DHT22;10788;47.930;9.766;2023-05-10T05:39:17;11.80;99.90
21261;DHT22;10788;47.930;9.766;2023-05-10T05:41:42;11.70;99.90
21261;DHT22;10788;47.930;9.766;2023-05-10T05:44:08;11.80;99.90
21261;DHT22;10788;47.930;9.766;2023-05-10T05:46:34;11.70;99.90
21261;DHT22;10788;47.930;9.766;2023-05-10T05:49:00;11.70;99.90
21261;DHT22;10788;47.930;9.766;2023-05-10T05:51:25;11.70;99.90
21261;DHT22;10788;47.930;9.766;2023-05-10T05:53:51;11.70;99.90
21261;DHT22;10788;47.930;9.766;2023-05-10T05:56:16;11.80;99.90
21261;DHT22;10788;47.930;9.766;2023-05-10T05:58:52;11.90;99.90
21261;DHT22;10788;47.930;9.766;2023-05-10T06:01:17;11.90;99.90
21261;DHT22;10788;47.930;9.766;2023-05-10T06:03:43;11.90;99.90
21261;DHT22;10788;47.930;9.766;2023-05-10T06:06:08;11.90;99.90
21261;DHT22;10788;47.930;9.766;2023-05-10T06:08:34;11.80;99.90
21261;DHT22;10788;47.930;9.766;2023-05-10T06:11:00;11.90;99.90
21261;DHT22;10788;47.930;9.766;2023-05-10T06:13:26;11.90;99.90
21261;DHT22;10788;47.930;9.766;2023-05-10T06:15:58;12.10;99.90
21261;DHT22;10788;47.930;9.766;2023-05-10T06:18:24;12.00;99.90
21261;DHT22;10788;47.930;9.766;2023-05-10T06:20:50;11.90;99.90
21261;DHT22;10788;47.930;9.766;2023-05-10T06:23:15;12.00;99.90
21261;DHT22;10788;47.930;9.766;2023-05-10T06:25:41;12.10;99.90
21261;DHT22;10788;47.930;9.766;2023-05-10T06:28:07;12.10;99.90
21261;DHT22;10788;47.930;9.766;2023-05-10T06:30:32;12.10;99.90
21261;DHT22;10788;47.930;9.766;2023-05-10T06:32:58;12.00;99.90
21261;DHT22;10788;47.930;9.766;2023-05-10T06:35:24;12.10;99.90
21261;DHT22;10788;47.930;9.766;2023-05-10T06:37:50;12.20;99.90
21261;DHT22;10788;47.930;9.766;2023-05-10T06:40:16;12.20;99.90
21261;DHT22;10788;47.930;9.766;2023-05-10T06:42:42;12.20;99.90
21261;DHT22;10788;47.930;9.766;2023-05-10T06:45:08;12.30;99.90
21261;DHT22;10788;47.930;9.766;2023-05-10T06:47:34;12.20;99.90
21261;DHT22;10788;47.930;9.766;2023-05-10T06:50:00;12.30;99.90
21261;DHT22;10788;47.930;9.766;2023-05-10T06:52:25;12.30;99.90
21261;DHT22;10788;47.930;9.766;2023-05-10T06:54:51;12.30;99.90
21261;DHT22;10788;47.930;9.766;2023-05-10T06:57:17;12.30;99.90
21261;DHT22;10788;47.930;9.766;2023-05-10T06:59:43;12.40;99.90
21261;DHT22;10788;47.930;9.766;2023-05-10T07:02:09;12.40;99.90
21261;DHT22;10788;47.930;9.766;2023-05-10T07:04:34;12.40;99.90
21261;DHT22;10788;47.930;9.766;2023-05-10T07:07:00;12.30;99.90
21261;DHT22;10788;47.930;9.766;2023-05-10T07:09:25;12.30;99.90
21261;DHT22;10788;47.930;9.766;2023-05-10T07:11:51;12.40;99.90
21261;DHT22;10788;47.930;9.766;2023-05-10T07:14:17;12.30;99.90
21261;DHT22;10788;47.930;9.766;2023-05-10T07:16:43;12.40;99.90
21261;DHT22;10788;47.930;9.766;2023-05-10T07:19:09;12.50;99.90
21261;DHT22;10788;47.930;9.766;2023-05-10T07:21:36;12.40;99.90
21261;DHT22;10788;47.930;9.766;2023-05-10T07:24:01;12.40;99.90
21261;DHT22;10788;47.930;9.766;2023-05-10T07:26:27;12.40;99.90
21261;DHT22;10788;47.930;9.766;2023-05-10T07:28:52;12.40;99.90
21261;DHT22;10788;47.930;9.766;2023-05-10T07:31:18;12.40;99.90
21261;DHT22;10788;47.930;9.766;2023-05-10T07:33:44;12.30;99.90
21261;DHT22;10788;47.930;9.766;2023-05-10T07:36:09;12.30;99.90
21261;DHT22;10788;47.930;9.766;2023-05-10T07:38:35;12.30;99.90
21261;DHT22;10788;47.930;9.766;2023-05-10T07:41:00;12.50;99.90
21261;DHT22;10788;47.930;9.766;2023-05-10T07:43:26;12.50;99.90
21261;DHT22;10788;47.930;9.766;2023-05-10T07:45:52;12.50;99.90
21261;DHT22;10788;47.930;9.766;2023-05-10T07:48:17;12.50;99.90
21261;DHT22;10788;47.930;9.766;2023-05-10T07:50:43;12.50;99.90
21261;DHT22;10788;47.930;9.766;2023-05-10T07:53:09;12.50;99.90
21261;DHT22;10788;47.930;9.766;2023-05-10T07:55:35;12.50;99.90
21261;DHT22;10788;47.930;9.766;2023-05-10T07:58:00;12.40;99.90
21261;DHT22;10788;47.930;9.766;2023-05-10T08:00:26;12.50;99.90
21261;DHT22;10788;47.930;9.766;2023-05-10T08:02:52;12.50;99.90
21261;DHT22;10788;47.930;9.766;2023-05-10T08:05:18;12.50;99.90
21261;DHT22;10788;47.930;9.766;2023-05-10T08:07:44;12.50;99.90
21261;DHT22;10788;47.930;9.766;2023-05-10T08:10:10;12.60;99.90
21261;DHT22;10788;47.930;9.766;2023-05-10T08:12:38;12.70;99.90
21261;DHT22;10788;47.930;9.766;2023-05-10T08:15:04;12.70;99.90
21261;DHT22;10788;47.930;9.766;2023-05-10T08:17:30;12.80;99.90
21261;DHT22;10788;47.930;9.766;2023-05-10T08:19:56;12.80;99.90
21261;DHT22;10788;47.930;9.766;2023-05-10T08:22:21;12.70;99.90
21261;DHT22;10788;47.930;9.766;2023-05-10T08:24:47;12.70;99.90
21261;DHT22;10788;47.930;9.766;2023-05-10T08:27:13;12.70;99.90
21261;DHT22;10788;47.930;9.766;2023-05-10T08:29:38;12.70;99.90
21261;DHT22;10788;47.930;9.766;2023-05-10T08:32:04;12.60;99.90
21261;DHT22;10788;47.930;9.766;2023-05-10T08:37:57;12.70;99.90
21261;DHT22;10788;47.930;9.766;2023-05-10T08:40:24;12.70;99.90
21261;DHT22;10788;47.930;9.766;2023-05-10T08:42:55;12.60;99.90
21261;DHT22;10788;47.930;9.766;2023-05-10T08:45:23;12.60;99.90
21261;DHT22;10788;47.930;9.766;2023-05-10T08:47:50;12.60;99.90
21261;DHT22;10788;47.930;9.766;2023-05-10T08:50:19;12.70;99.90
21261;DHT22;10788;47.930;9.766;2023-05-10T08:52:46;12.80;99.90
21261;DHT22;10788;47.930;9.766;2023-05-10T08:55:13;12.70;99.90
21261;DHT22;10788;47.930;9.766;2023-05-10T08:57:40;12.80;99.90
21261;DHT22;10788;47.930;9.766;2023-05-10T09:00:06;13.00;99.90
21261;DHT22;10788;47.930;9.766;2023-05-10T09:02:34;12.90;99.90
21261;DHT22;10788;47.930;9.766;2023-05-10T09:05:00;12.90;99.90
21261;DHT22;10788;47.930;9.766;2023-05-10T09:07:27;13.00;99.90
21261;DHT22;10788;47.930;9.766;2023-05-10T09:09:53;13.10;99.90
21261;DHT22;10788;47.930;9.766;2023-05-10T09:12:19;13.20;99.90
21261;DHT22;10788;47.930;9.766;2023-05-10T09:14:45;13.10;99.90
21261;DHT22;10788;47.930;9.766;2023-05-10T09:17:11;13.20;99.90
21261;DHT22;10788;47.930;9.766;2023-05-10T09:19:37;13.20;99.90
21261;DHT22;10788;47.930;9.766;2023-05-10T09:22:04;13.20;99.90
21261;DHT22;10788;47.930;9.766;2023-05-10T09:24:30;13.20;99.90
21261;DHT22;10788;47.930;9.766;2023-05-10T09:26:57;13.20;99.90
21261;DHT22;10788;47.930;9.766;2023-05-10T09:29:23;13.20;99.90
21261;DHT22;10788;47.930;9.766;2023-05-10T09:31:52;13.20;99.90
21261;DHT22;10788;47.930;9.766;2023-05-10T09:34:30;13.30;99.90
21261;DHT22;10788;47.930;9.766;2023-05-10T09:37:01;13.20;99.90
21261;DHT22;10788;47.930;9.766;2023-05-10T09:39:36;13.20;99.90
21261;DHT22;10788;47.930;9.766;2023-05-10T09:42:04;13.20;99.90
21261;DHT22;10788;47.930;9.766;2023-05-10T09:44:30;13.20;99.90
21261;DHT22;10788;47.930;9.766;2023-05-10T09:46:56;13.20;99.90
21261;DHT22;10788;47.930;9.766;2023-05-10T09:49:22;13.20;99.90
21261;DHT22;10788;47.930;9.766;2023-05-10T09:52:03;13.30;99.90
21261;DHT22;10788;47.930;9.766;2023-05-10T09:54:29;13.30;99.90
21261;DHT22;10788;47.930;9.766;2023-05-10T09:56:55;13.30;99.90
21261;DHT22;10788;47.930;9.766;2023-05-10T09:59:21;13.30;99.90
21261;DHT22;10788;47.930;9.766;2023-05-10T10:01:50;13.40;99.90
21261;DHT22;10788;47.930;9.766;2023-05-10T10:04:17;13.40;99.90
21261;DHT22;10788;47.930;9.766;2023-05-10T10:06:42;13.40;99.90
21261;DHT22;10788;47.930;9.766;2023-05-10T10:09:08;13.40;99.90
21261;DHT22;10788;47.930;9.766;2023-05-10T10:11:36;13.50;99.90
21261;DHT22;10788;47.930;9.766;2023-05-10T10:14:02;13.60;99.90
21261;DHT22;10788;47.930;9.766;2023-05-10T10:16:29;13.70;99.90
21261;DHT22;10788;47.930;9.766;2023-05-10T10:18:56;13.80;99.90
21261;DHT22;10788;47.930;9.766;2023-05-10T10:21:22;13.80;99.90
21261;DHT22;10788;47.930;9.766;2023-05-10T10:23:48;13.80;99.90
21261;DHT22;10788;47.930;9.766;2023-05-10T10:26:14;13.80;99.90
21261;DHT22;10788;47.930;9.766;2023-05-10T10:28:49;13.70;99.90
21261;DHT22;10788;47.930;9.766;2023-05-10T10:34:26;13.60;99.90
21261;DHT22;10788;47.930;9.766;2023-05-10T10:36:54;13.40;99.90
21261;DHT22;10788;47.930;9.766;2023-05-10T10:39:20;13.40;99.90
21261;DHT22;10788;47.930;9.766;2023-05-10T10:41:54;13.10;99.90
21261;DHT22;10788;47.930;9.766;2023-05-10T10:49:32;12.80;99.90
21261;DHT22;10788;47.930;9.766;2023-05-10T10:54:57;12.40;99.90
21261;DHT22;10788;47.930;9.766;2023-05-10T10:57:24;12.20;99.90
21261;DHT22;10788;47.930;9.766;2023-05-10T10:59:53;12.10;99.90
21261;DHT22;10788;47.930;9.766;2023-05-10T11:02:43;12.00;99.90
21261;DHT22;10788;47.930;9.766;2023-05-10T11:07:57;12.00;99.90
21261;DHT22;10788;47.930;9.766;2023-05-10T11:10:24;11.90;99.90
21261;DHT22;10788;47.930;9.766;2023-05-10T11:13:03;11.80;99.90
21261;DHT22;10788;47.930;9.766;2023-05-10T11:15:31;11.80;99.90
21261;DHT22;10788;47.930;9.766;2023-05-10T11:17:57;11.80;99.90
21261;DHT22;10788;47.930;9.766;2023-05-10T11:20:23;11.70;99.90
21261;DHT22;10788;47.930;9.766;2023-05-10T11:23:00;11.70;99.90
21261;DHT22;10788;47.930;9.766;2023-05-10T11:25:41;11.70;99.90
21261;DHT22;10788;47.930;9.766;2023-05-10T11:28:07;11.50;99.90
21261;DHT22;10788;47.930;9.766;2023-05-10T11:30:33;11.50;99.90
21261;DHT22;10788;47.930;9.766;2023-05-10T11:32:58;11.50;99.90
21261;DHT22;10788;47.930;9.766;2023-05-10T11:35:26;11.60;99.90
21261;DHT22;10788;47.930;9.766;2023-05-10T11:37:52;11.50;99.90
21261;DHT22;10788;47.930;9.766;2023-05-10T11:40:18;11.50;99.90
21261;DHT22;10788;47.930;9.766;2023-05-10T11:42:45;11.60;99.90
21261;DHT22;10788;47.930;9.766;2023-05-10T11:45:10;11.60;99.90
21261;DHT22;10788;47.930;9.766;2023-05-10T11:47:36;11.60;99.90
21261;DHT22;10788;47.930;9.766;2023-05-10T11:50:02;11.70;99.90
21261;DHT22;10788;47.930;9.766;2023-05-10T11:52:28;11.70;99.90
21261;DHT22;10788;47.930;9.766;2023-05-10T11:54:55;11.70;99.90
21261;DHT22;10788;47.930;9.766;2023-05-10T11:57:25;11.80;99.90
21261;DHT22;10788;47.930;9.766;2023-05-10T11:59:56;11.80;99.90
21261;DHT22;10788;47.930;9.766;2023-05-10T12:02:21;11.90;99.90
21261;DHT22;10788;47.930;9.766;2023-05-10T12:04:47;11.90;99.90
21261;DHT22;10788;47.930;9.766;2023-05-10T12:07:13;11.90;99.90
21261;DHT22;10788;47.930;9.766;2023-05-10T12:09:55;11.90;99.90
21261;DHT22;10788;47.930;9.766;2023-05-10T12:12:27;12.00;99.90
21261;DHT22;10788;47.930;9.766;2023-05-10T12:14:53;12.00;99.90
21261;DHT22;10788;47.930;9.766;2023-05-10T12:17:18;11.80;99.90
21261;DHT22;10788;47.930;9.766;2023-05-10T12:19:44;11.80;99.90
21261;DHT22;10788;47.930;9.766;2023-05-10T12:22:09;11.80;99.90
21261;DHT22;10788;47.930;9.766;2023-05-10T12:24:36;11.70;99.90
21261;DHT22;10788;47.930;9.766;2023-05-10T12:27:08;11.70;99.90
21261;DHT22;10788;47.930;9.766;2023-05-10T12:29:34;11.80;99.90
21261;DHT22;10788;47.930;9.766;2023-05-10T12:31:59;11.80;99.90
21261;DHT22;10788;47.930;9.766;2023-05-10T12:34:34;11.90;99.90
21261;DHT22;10788;47.930;9.766;2023-05-10T12:37:02;11.90;99.90
21261;DHT22;10788;47.930;9.766;2023-05-10T12:39:41;11.90;99.90
21261;DHT22;10788;47.930;9.766;2023-05-10T12:42:07;12.00;99.90
21261;DHT22;10788;47.930;9.766;2023-05-10T12:44:33;11.90;99.90
21261;DHT22;10788;47.930;9.766;2023-05-10T12:46:58;11.90;99.90
21261;DHT22;10788;47.930;9.766;2023-05-10T12:49:24;11.90;99.90
21261;DHT22;10788;47.930;9.766;2023-05-10T12:51:49;11.90;99.90
21261;DHT22;10788;47.930;9.766;2023-05-10T12:54:15;11.90;99.90
21261;DHT22;10788;47.930;9.766;2023-05-10T12:56:41;11.90;99.90
21261;DHT22;10788;47.930;9.766;2023-05-10T12:59:08;12.00;99.90
21261;DHT22;10788;47.930;9.766;2023-05-10T13:01:33;12.00;99.90
21261;DHT22;10788;47.930;9.766;2023-05-10T13:03:59;12.10;99.90
21261;DHT22;10788;47.930;9.766;2023-05-10T13:06:25;12.10;99.90
21261;DHT22;10788;47.930;9.766;2023-05-10T13:08:51;12.20;99.90
21261;DHT22;10788;47.930;9.766;2023-05-10T13:11:17;12.20;99.90
21261;DHT22;10788;47.930;9.766;2023-05-10T13:13:45;12.30;99.90
21261;DHT22;10788;47.930;9.766;2023-05-10T13:16:10;12.30;99.90
21261;DHT22;10788;47.930;9.766;2023-05-10T13:18:36;12.20;99.90
21261;DHT22;10788;47.930;9.766;2023-05-10T13:21:01;12.30;99.90
21261;DHT22;10788;47.930;9.766;2023-05-10T13:23:29;12.40;99.90
21261;DHT22;10788;47.930;9.766;2023-05-10T13:25:54;12.50;99.90
21261;DHT22;10788;47.930;9.766;2023-05-10T13:28:20;12.50;99.90
21261;DHT22;10788;47.930;9.766;2023-05-10T13:30:46;12.50;99.90
21261;DHT22;10788;47.930;9.766;2023-05-10T13:33:11;12.50;99.90
21261;DHT22;10788;47.930;9.766;2023-05-10T13:35:37;12.50;99.90
21261;DHT22;10788;47.930;9.766;2023-05-10T13:38:03;12.50;99.90
21261;DHT22;10788;47.930;9.766;2023-05-10T13:40:28;12.50;99.90
21261;DHT22;10788;47.930;9.766;2023-05-10T13:42:54;12.60;99.90
21261;DHT22;10788;47.930;9.766;2023-05-10T13:45:19;12.40;99.90
21261;DHT22;10788;47.930;9.766;2023-05-10T13:47:45;12.50;99.90
21261;DHT22;10788;47.930;9.766;2023-05-10T13:50:11;12.50;99.90
21261;DHT22;10788;47.930;9.766;2023-05-10T13:52:36;12.60;99.90
21261;DHT22;10788;47.930;9.766;2023-05-10T13:55:02;12.60;99.90
21261;DHT22;10788;47.930;9.766;2023-05-10T13:57:28;12.70;99.90
21261;DHT22;10788;47.930;9.766;2023-05-10T13:59:55;12.70;99.90
21261;DHT22;10788;47.930;9.766;2023-05-10T14:02:22;12.60;99.90
21261;DHT22;10788;47.930;9.766;2023-05-10T14:04:48;12.60;99.90
21261;DHT22;10788;47.930;9.766;2023-05-10T14:07:13;12.40;99.90
21261;DHT22;10788;47.930;9.766;2023-05-10T14:09:39;12.30;99.90
21261;DHT22;10788;47.930;9.766;2023-05-10T14:12:05;12.30;99.90
21261;DHT22;10788;47.930;9.766;2023-05-10T14:14:30;12.20;99.90
21261;DHT22;10788;47.930;9.766;2023-05-10T14:16:56;12.10;99.90
21261;DHT22;10788;47.930;9.766;2023-05-10T14:19:22;12.00;99.90
21261;DHT22;10788;47.930;9.766;2023-05-10T14:21:47;11.90;99.90
21261;DHT22;10788;47.930;9.766;2023-05-10T14:24:13;11.80;99.90
21261;DHT22;10788;47.930;9.766;2023-05-10T14:26:38;11.80;99.90
21261;DHT22;10788;47.930;9.766;2023-05-10T14:29:04;11.80;99.90
21261;DHT22;10788;47.930;9.766;2023-05-10T14:31:29;11.70;99.90
21261;DHT22;10788;47.930;9.766;2023-05-10T14:33:55;11.60;99.90
21261;DHT22;10788;47.930;9.766;2023-05-10T14:36:21;11.70;99.90
21261;DHT22;10788;47.930;9.766;2023-05-10T14:38:47;11.60;99.90
21261;DHT22;10788;47.930;9.766;2023-05-10T14:41:13;11.50;99.90
21261;DHT22;10788;47.930;9.766;2023-05-10T14:43:40;11.60;99.90
21261;DHT22;10788;47.930;9.766;2023-05-10T14:46:06;11.70;99.90
21261;DHT22;10788;47.930;9.766;2023-05-10T14:48:32;11.80;99.90
21261;DHT22;10788;47.930;9.766;2023-05-10T14:50:57;11.80;99.90
21261;DHT22;10788;47.930;9.766;2023-05-10T14:53:23;11.80;99.90
21261;DHT22;10788;47.930;9.766;2023-05-10T14:55:49;11.70;99.90
21261;DHT22;10788;47.930;9.766;2023-05-10T14:58:14;11.80;99.90
21261;DHT22;10788;47.930;9.766;2023-05-10T15:00:40;11.90;99.90
21261;DHT22;10788;47.930;9.766;2023-05-10T15:03:06;11.80;99.90
21261;DHT22;10788;47.930;9.766;2023-05-10T15:05:31;11.70;99.90
21261;DHT22;10788;47.930;9.766;2023-05-10T15:07:57;11.50;99.90
21261;DHT22;10788;47.930;9.766;2023-05-10T15:10:22;11.50;99.90
21261;DHT22;10788;47.930;9.766;2023-05-10T15:12:48;11.60;99.90
21261;DHT22;10788;47.930;9.766;2023-05-10T15:15:14;11.50;99.90
21261;DHT22;10788;47.930;9.766;2023-05-10T15:17:40;11.60;99.90
21261;DHT22;10788;47.930;9.766;2023-05-10T15:20:06;11.70;99.90
21261;DHT22;10788;47.930;9.766;2023-05-10T15:22:32;11.60;99.90
21261;DHT22;10788;47.930;9.766;2023-05-10T15:24:58;11.50;99.90
21261;DHT22;10788;47.930;9.766;2023-05-10T15:27:24;11.50;99.90
21261;DHT22;10788;47.930;9.766;2023-05-10T15:29:51;11.40;99.90
21261;DHT22;10788;47.930;9.766;2023-05-10T15:32:16;11.40;99.90
21261;DHT22;10788;47.930;9.766;2023-05-10T15:34:42;11.30;99.90
21261;DHT22;10788;47.930;9.766;2023-05-10T15:37:07;11.40;99.90
21261;DHT22;10788;47.930;9.766;2023-05-10T15:39:33;11.50;99.90
21261;DHT22;10788;47.930;9.766;2023-05-10T15:41:59;11.50;99.90
21261;DHT22;10788;47.930;9.766;2023-05-10T15:44:26;11.60;99.90
21261;DHT22;10788;47.930;9.766;2023-05-10T15:46:52;11.60;99.90
21261;DHT22;10788;47.930;9.766;2023-05-10T15:49:17;11.60;99.90
21261;DHT22;10788;47.930;9.766;2023-05-10T15:51:43;11.50;99.90
21261;DHT22;10788;47.930;9.766;2023-05-10T15:54:09;11.60;99.90
21261;DHT22;10788;47.930;9.766;2023-05-10T15:56:35;11.70;99.90
21261;DHT22;10788;47.930;9.766;2023-05-10T15:59:00;11.60;99.90
21261;DHT22;10788;47.930;9.766;2023-05-10T16:01:26;11.60;99.90
21261;DHT22;10788;47.930;9.766;2023-05-10T16:03:52;11.70;99.90